Imigrante, Brazil
Current Conditions -  °F | °C
As of 7:00 AM on Saturday 20 Dec 2014 (Local Time) from SBCO Reporting Station
Light Fog Light Fog  
Wind Chill: 66°   Ceiling: Unl
Heat Index: 66°   Visibility: 2.5mi
Dew Point: 66°   Wind: 1mph
Humidity: 100%   Direction: 110°ESE
Pressure: 29.71"   Gusts: NA
Location:  29.36°S, 51.78°W
Report Text: SBCO 200900Z 11001KT 4000 0400E R30/P2000 R12/P2000 BCFG BR NSC 19/19 Q1006
Loading
Personal Weather Stations






























Interactive Weather Map New forecast layout! Learn more

10-Day Weather Forecast

Advertisements
Track Severe Weather on mobile